createdAt,value
2023-09-27T00:03:04.727Z,101056.72
2023-09-27T00:08:07.861Z,101065.47
2023-09-27T00:13:10.672Z,101065.78
2023-09-27T00:18:12.906Z,101058.09
2023-09-27T00:23:15.227Z,101058.94
2023-09-27T00:28:17.426Z,101071.00
2023-09-27T00:33:19.632Z,101068.25
2023-09-27T00:38:22.160Z,101056.50
2023-09-27T00:43:32.210Z,101066.59
2023-09-27T00:48:37.362Z,101063.06
2023-09-27T00:53:41.838Z,101060.06
2023-09-27T00:58:44.158Z,101062.78
2023-09-27T01:03:47.837Z,101057.59
2023-09-27T01:08:50.140Z,101061.97
2023-09-27T01:13:52.255Z,101073.19
2023-09-27T01:18:54.799Z,101067.19
2023-09-27T01:23:57.610Z,101076.72
2023-09-27T01:28:59.833Z,101074.28
2023-09-27T01:34:01.965Z,101064.94
2023-09-27T01:39:04.345Z,101080.00
2023-09-27T01:44:06.612Z,101076.72
2023-09-27T01:49:08.749Z,101075.06
2023-09-27T01:54:11.169Z,101077.81
2023-09-27T01:59:13.345Z,101080.00
2023-09-27T02:04:15.568Z,101064.63
2023-09-27T02:09:17.721Z,101058.91
2023-09-27T02:14:19.915Z,101075.59
2023-09-27T02:19:22.526Z,101072.81
2023-09-27T02:24:24.629Z,101075.56
2023-09-27T02:29:27.939Z,101079.62
2023-09-27T02:34:30.135Z,101070.59
2023-09-27T02:39:32.586Z,101068.13
2023-09-27T02:44:34.762Z,101071.13
2023-09-27T02:49:37.137Z,101071.09
2023-09-27T02:54:39.249Z,101082.03
2023-09-27T02:59:42.137Z,101070.81
2023-09-27T03:04:44.282Z,101076.84
2023-09-27T03:09:48.398Z,101069.69
2023-09-27T03:14:50.586Z,101082.31
2023-09-27T03:19:52.793Z,101081.47
2023-09-27T03:24:54.900Z,101083.94
2023-09-27T03:29:57.325Z,101089.94
2023-09-27T03:35:00.380Z,101081.16
2023-09-27T03:40:04.499Z,101063.31
2023-09-27T03:45:06.987Z,101070.22
2023-09-27T03:50:09.376Z,101075.09
2023-09-27T03:55:13.208Z,101084.06
2023-09-27T04:00:17.402Z,101088.16
2023-09-27T04:05:22.775Z,101082.69
2023-09-27T04:10:25.915Z,101087.31
2023-09-27T04:15:28.220Z,101085.09
2023-09-27T04:20:31.420Z,101071.41
2023-09-27T04:25:34.493Z,101077.41
2023-09-27T04:30:36.716Z,101078.22
2023-09-27T04:35:38.930Z,101090.53
2023-09-27T04:40:41.223Z,101094.31
2023-09-27T04:45:43.418Z,101096.81
2023-09-27T04:50:45.695Z,101094.84
2023-09-27T04:55:48.706Z,101095.94
2023-09-27T05:00:51.323Z,101101.44
2023-09-27T05:05:53.566Z,101110.75
2023-09-27T05:10:57.409Z,101100.38
2023-09-27T05:15:59.820Z,101103.69
2023-09-27T05:21:07.168Z,101104.50
2023-09-27T05:26:13.215Z,101114.94
2023-09-27T05:31:15.497Z,101115.81
2023-09-27T05:36:17.682Z,101112.00
2023-09-27T05:41:20.113Z,101128.75
2023-09-27T05:46:22.325Z,101135.09
2023-09-27T05:51:25.131Z,101125.22
2023-09-27T05:56:29.006Z,101132.16
2023-09-27T06:01:33.186Z,101128.94
2023-09-27T06:06:37.602Z,101126.78
2023-09-27T06:11:39.784Z,101147.38
2023-09-27T06:16:46.078Z,101142.19
2023-09-27T06:21:48.249Z,101164.16
2023-09-27T06:26:50.381Z,101152.37
2023-09-27T06:31:52.812Z,101169.66
2023-09-27T06:36:57.616Z,101167.47
2023-09-27T06:42:00.221Z,101186.41
2023-09-27T06:47:03.544Z,101188.06
2023-09-27T06:52:06.767Z,101174.88
2023-09-27T06:57:08.925Z,101189.37
2023-09-27T07:02:11.172Z,101200.88
2023-09-27T07:07:13.396Z,101192.06
2023-09-27T07:12:16.151Z,101203.25
2023-09-27T07:17:18.843Z,101201.81
2023-09-27T07:22:21.023Z,101191.91
2023-09-27T07:27:23.141Z,101195.41
2023-09-27T07:32:25.305Z,101200.50
2023-09-27T07:37:27.392Z,101197.38
2023-09-27T07:42:29.672Z,101211.53
2023-09-27T07:47:34.004Z,101211.97
2023-09-27T07:52:36.233Z,101212.63
2023-09-27T07:57:38.442Z,101201.50
2023-09-27T08:02:40.698Z,101220.81
2023-09-27T08:07:42.900Z,101217.00
2023-09-27T08:12:45.196Z,101208.56
2023-09-27T08:17:48.930Z,101210.03
2023-09-27T08:22:51.331Z,101223.25
2023-09-27T08:27:53.480Z,101225.19
2023-09-27T08:32:55.766Z,101222.75
2023-09-27T08:37:58.197Z,101213.94
2023-09-27T08:43:01.563Z,101209.41
2023-09-27T08:48:05.786Z,101221.13
2023-09-27T08:53:08.490Z,101202.66
2023-09-27T08:58:14.148Z,101217.66
2023-09-27T09:03:17.300Z,101221.13
2023-09-27T09:08:33.512Z,101215.69
2023-09-27T09:14:04.703Z,101221.31
2023-09-27T09:19:37.422Z,101203.00
2023-09-27T09:24:46.732Z,101203.47
2023-09-27T09:29:51.842Z,101198.41
2023-09-27T09:34:55.265Z,101200.69
2023-09-27T09:40:17.762Z,101197.56
2023-09-27T09:45:21.608Z,101203.84
2023-09-27T09:50:23.999Z,101196.41
2023-09-27T09:56:09.026Z,101196.34
2023-09-27T10:01:02.157Z,101183.22
2023-09-27T10:06:06.311Z,101187.44
2023-09-27T10:11:09.468Z,101189.91
2023-09-27T10:16:12.858Z,101186.72
2023-09-27T10:21:15.961Z,101175.75
2023-09-27T10:26:30.665Z,101181.47
2023-09-27T10:31:37.780Z,101165.06
2023-09-27T10:36:55.322Z,101154.41
2023-09-27T10:42:02.104Z,101152.66
2023-09-27T10:47:06.281Z,101149.19
2023-09-27T10:52:21.544Z,101151.31
2023-09-27T10:57:23.788Z,101152.66
2023-09-27T11:02:30.333Z,101143.44
2023-09-27T11:07:47.372Z,101134.81
2023-09-27T11:12:49.925Z,101118.09
2023-09-27T11:17:56.935Z,101112.50
2023-09-27T11:23:01.203Z,101106.69
2023-09-27T11:28:03.699Z,101103.16
2023-09-27T11:33:07.036Z,101090.53
2023-09-27T11:38:11.726Z,101098.00
2023-09-27T11:43:14.192Z,101088.47
2023-09-27T11:48:17.767Z,101078.09
2023-09-27T11:53:19.962Z,101088.19
2023-09-27T11:58:22.738Z,101069.84
2023-09-27T12:03:24.984Z,101070.72
2023-09-27T12:08:27.170Z,101061.53
2023-09-27T12:13:29.615Z,101053.19
2023-09-27T12:18:31.906Z,101052.31
2023-09-27T12:23:34.489Z,101055.03
2023-09-27T12:28:38.228Z,101035.09
2023-09-27T12:33:40.412Z,101041.44
2023-09-27T12:38:43.770Z,101018.50
2023-09-27T12:43:46.828Z,101029.87
2023-09-27T12:48:49.059Z,101032.12
2023-09-27T12:53:51.244Z,101038.50
2023-09-27T12:58:53.687Z,101024.00
2023-09-27T13:03:56.136Z,101025.31
2023-09-27T13:08:58.390Z,101011.38
2023-09-27T13:14:00.580Z,101010.34
2023-09-27T13:19:02.675Z,101006.03
2023-09-27T13:24:05.371Z,101004.72
2023-09-27T13:29:07.717Z,100988.78
2023-09-27T13:34:12.348Z,100985.97
2023-09-27T13:39:26.313Z,100977.94
2023-09-27T13:44:28.833Z,100978.69
2023-09-27T13:49:31.104Z,100975.06
2023-09-27T13:54:33.284Z,100966.81
2023-09-27T13:59:35.433Z,100960.88
2023-09-27T14:04:44.379Z,100968.84
2023-09-27T14:09:46.543Z,100957.03
2023-09-27T14:14:48.833Z,100949.31
2023-09-27T14:19:51.053Z,100940.69
2023-09-27T14:24:53.766Z,100938.81
2023-09-27T14:29:56.166Z,100928.78
2023-09-27T14:34:58.761Z,100927.66
2023-09-27T14:40:01.075Z,100917.66
2023-09-27T14:45:06.537Z,100916.19
2023-09-27T14:50:13.384Z,100905.63
2023-09-27T14:55:18.816Z,100912.28
2023-09-27T15:00:23.954Z,100896.69
2023-09-27T15:05:26.184Z,100883.03
2023-09-27T15:10:28.380Z,100888.97
2023-09-27T15:15:30.550Z,100894.81
2023-09-27T15:20:33.492Z,100883.56
2023-09-27T15:25:36.396Z,100880.69
2023-09-27T15:30:38.580Z,100886.69
2023-09-27T15:35:40.811Z,100895.63
2023-09-27T15:40:42.982Z,100891.09
2023-09-27T15:45:59.129Z,100888.63
2023-09-27T15:51:07.860Z,100876.03
2023-09-27T15:56:12.760Z,100884.31
2023-09-27T16:01:15.194Z,100883.44
2023-09-27T16:06:17.796Z,100880.97
2023-09-27T16:11:30.946Z,100869.44
2023-09-27T16:16:33.178Z,100877.44
2023-09-27T16:21:35.341Z,100878.97
2023-09-27T16:26:37.461Z,100871.09
2023-09-27T16:31:43.724Z,100881.09
2023-09-27T16:36:46.101Z,100884.47
2023-09-27T16:41:48.310Z,100875.62
2023-09-27T16:46:50.434Z,100893.19
2023-09-27T16:51:52.875Z,100882.38
2023-09-27T16:56:55.008Z,100874.41
2023-09-27T17:01:57.200Z,100873.12
2023-09-27T17:06:59.459Z,100880.78
2023-09-27T17:12:01.620Z,100881.84
2023-09-27T17:17:03.846Z,100884.87
2023-09-27T17:22:06.208Z,100887.53
2023-09-27T17:27:08.812Z,100879.00
2023-09-27T17:32:11.090Z,100899.44
2023-09-27T17:37:13.469Z,100890.56
2023-09-27T17:42:16.569Z,100898.91
2023-09-27T17:47:18.666Z,100899.72
2023-09-27T17:52:21.813Z,100901.41
2023-09-27T17:57:24.245Z,100887.03
2023-09-27T18:02:27.063Z,100895.97
2023-09-27T18:07:29.456Z,100897.94
2023-09-27T18:12:31.580Z,100887.09
2023-09-27T18:17:34.972Z,100903.34
2023-09-27T18:22:37.712Z,100898.44
2023-09-27T18:27:39.914Z,100895.88
2023-09-27T18:32:42.037Z,100902.72
2023-09-27T18:37:44.194Z,100900.16
2023-09-27T18:42:46.442Z,100906.88
2023-09-27T18:47:51.629Z,100906.88
2023-09-27T18:52:54.507Z,100909.53
2023-09-27T18:57:56.626Z,100905.28
2023-09-27T19:02:59.270Z,100905.16
2023-09-27T19:08:01.527Z,100891.00
2023-09-27T19:13:03.797Z,100902.63
2023-09-27T19:18:06.080Z,100899.06
2023-09-27T19:23:08.306Z,100901.09
2023-09-27T19:28:10.546Z,100894.19
2023-09-27T19:33:12.727Z,100902.97
2023-09-27T19:38:15.050Z,100903.47
2023-09-27T19:43:17.178Z,100904.91
2023-09-27T19:48:19.275Z,100899.81
2023-09-27T19:53:23.711Z,100903.16
2023-09-27T19:58:25.827Z,100897.50
2023-09-27T20:03:28.078Z,100895.00
2023-09-27T20:08:30.342Z,100895.28
2023-09-27T20:13:32.484Z,100900.78
2023-09-27T20:18:34.629Z,100888.28
2023-09-27T20:23:36.730Z,100892.16
2023-09-27T20:28:41.307Z,100898.81
2023-09-27T20:33:43.545Z,100898.66
2023-09-27T20:38:47.751Z,100903.38
2023-09-27T20:43:50.129Z,100903.75
2023-09-27T20:48:52.566Z,100910.97
2023-09-27T20:53:55.569Z,100909.97
2023-09-27T20:58:58.104Z,100905.09
2023-09-27T21:04:01.081Z,100909.31
2023-09-27T21:09:04.321Z,100904.16
2023-09-27T21:14:06.587Z,100902.31
2023-09-27T21:19:08.695Z,100897.16
2023-09-27T21:24:10.878Z,100902.94
2023-09-27T21:29:13.742Z,100893.66
2023-09-27T21:34:15.975Z,100908.47
2023-09-27T21:39:19.497Z,100896.41
2023-09-27T21:44:24.001Z,100886.62
2023-09-27T21:49:27.031Z,100892.72
2023-09-27T21:54:29.981Z,100899.28
2023-09-27T21:59:32.153Z,100881.81
2023-09-27T22:04:34.434Z,100900.66
2023-09-27T22:09:37.555Z,100876.97
2023-09-27T22:14:48.218Z,100871.53
2023-09-27T22:19:51.108Z,100880.81
2023-09-27T22:24:53.776Z,100875.47
2023-09-27T22:29:57.398Z,100878.22
2023-09-27T22:35:01.461Z,100873.88
2023-09-27T22:40:15.640Z,100883.72
2023-09-27T22:45:32.680Z,100881.53
2023-09-27T22:50:47.098Z,100867.87
2023-09-27T22:56:08.601Z,100866.25
2023-09-27T23:01:29.017Z,100871.44
2023-09-27T23:06:31.440Z,100870.87
2023-09-27T23:11:41.679Z,100881.28
2023-09-27T23:16:46.626Z,100877.19
2023-09-27T23:21:49.276Z,100883.25
2023-09-27T23:27:00.357Z,100869.50
2023-09-27T23:32:15.310Z,100871.44
2023-09-27T23:37:19.503Z,100878.88
2023-09-27T23:42:24.872Z,100882.72
2023-09-27T23:47:27.066Z,100876.72
2023-09-27T23:52:29.676Z,100885.50
2023-09-27T23:57:32.050Z,100867.16
